sensor_id;sensor_type;location;lat;lon;timestamp;temperature;humidity
71839;SHT31;59687;37.520;15.068;2022-10-04T00:01:56;19.53;75.41
71839;SHT31;59687;37.520;15.068;2022-10-04T00:04:33;19.50;75.18
71839;SHT31;59687;37.520;15.068;2022-10-04T00:09:46;19.58;74.52
71839;SHT31;59687;37.520;15.068;2022-10-04T00:12:21;19.64;74.25
71839;SHT31;59687;37.520;15.068;2022-10-04T00:14:57;19.61;74.26
71839;SHT31;59687;37.520;15.068;2022-10-04T00:17:28;19.55;74.17
71839;SHT31;59687;37.520;15.068;2022-10-04T00:20:02;19.55;74.20
71839;SHT31;59687;37.520;15.068;2022-10-04T00:22:31;19.54;74.00
71839;SHT31;59687;37.520;15.068;2022-10-04T00:25:19;19.55;73.92
71839;SHT31;59687;37.520;15.068;2022-10-04T00:31:19;19.54;73.67
71839;SHT31;59687;37.520;15.068;2022-10-04T00:39:16;19.48;73.52
71839;SHT31;59687;37.520;15.068;2022-10-04T00:44:32;19.50;73.37
71839;SHT31;59687;37.520;15.068;2022-10-04T00:47:11;19.48;73.38
71839;SHT31;59687;37.520;15.068;2022-10-04T00:49:40;19.44;73.49
71839;SHT31;59687;37.520;15.068;2022-10-04T00:52:19;19.40;73.51
71839;SHT31;59687;37.520;15.068;2022-10-04T00:54:50;19.43;73.56
71839;SHT31;59687;37.520;15.068;2022-10-04T00:57:39;19.35;73.36
71839;SHT31;59687;37.520;15.068;2022-10-04T01:05:38;19.28;73.09
71839;SHT31;59687;37.520;15.068;2022-10-04T01:08:12;19.26;73.13
71839;SHT31;59687;37.520;15.068;2022-10-04T01:10:53;19.24;73.06
71839;SHT31;59687;37.520;15.068;2022-10-04T01:13:35;19.21;73.22
71839;SHT31;59687;37.520;15.068;2022-10-04T01:18:37;19.21;72.98
71839;SHT31;59687;37.520;15.068;2022-10-04T01:21:07;19.20;73.04
71839;SHT31;59687;37.520;15.068;2022-10-04T01:26:06;19.21;72.79
71839;SHT31;59687;37.520;15.068;2022-10-04T01:31:31;19.16;72.55
71839;SHT31;59687;37.520;15.068;2022-10-04T01:33:59;19.19;72.57
71839;SHT31;59687;37.520;15.068;2022-10-04T01:36:28;19.14;72.66
71839;SHT31;59687;37.520;15.068;2022-10-04T01:38:56;19.16;72.81
71839;SHT31;59687;37.520;15.068;2022-10-04T01:44:05;19.16;72.57
71839;SHT31;59687;37.520;15.068;2022-10-04T01:46:36;19.14;72.81
71839;SHT31;59687;37.520;15.068;2022-10-04T01:49:10;19.12;72.73
71839;SHT31;59687;37.520;15.068;2022-10-04T01:51:48;19.10;72.87
71839;SHT31;59687;37.520;15.068;2022-10-04T01:54:29;19.07;73.00
71839;SHT31;59687;37.520;15.068;2022-10-04T01:57:37;19.06;73.11
71839;SHT31;59687;37.520;15.068;2022-10-04T02:00:12;19.07;73.32
71839;SHT31;59687;37.520;15.068;2022-10-04T02:03:03;19.06;73.36
71839;SHT31;59687;37.520;15.068;2022-10-04T02:05:37;19.06;73.56
71839;SHT31;59687;37.520;15.068;2022-10-04T02:08:09;19.03;73.67
71839;SHT31;59687;37.520;15.068;2022-10-04T02:10:38;19.00;73.78
71839;SHT31;59687;37.520;15.068;2022-10-04T02:13:12;18.99;74.04
71839;SHT31;59687;37.520;15.068;2022-10-04T02:15:40;18.98;74.19
71839;SHT31;59687;37.520;15.068;2022-10-04T02:18:11;18.98;74.20
71839;SHT31;59687;37.520;15.068;2022-10-04T02:20:40;18.99;74.28
71839;SHT31;59687;37.520;15.068;2022-10-04T02:23:09;19.00;74.27
71839;SHT31;59687;37.520;15.068;2022-10-04T02:25:37;18.98;74.45
71839;SHT31;59687;37.520;15.068;2022-10-04T02:28:09;18.95;74.42
71839;SHT31;59687;37.520;15.068;2022-10-04T02:30:50;18.98;74.46
71839;SHT31;59687;37.520;15.068;2022-10-04T02:33:44;18.95;74.42
71839;SHT31;59687;37.520;15.068;2022-10-04T02:36:13;18.93;74.50
71839;SHT31;59687;37.520;15.068;2022-10-04T02:38:47;18.93;74.53
71839;SHT31;59687;37.520;15.068;2022-10-04T02:41:33;18.96;74.49
71839;SHT31;59687;37.520;15.068;2022-10-04T02:49:33;18.91;74.76
71839;SHT31;59687;37.520;15.068;2022-10-04T02:54:57;18.85;74.97
71839;SHT31;59687;37.520;15.068;2022-10-04T02:57:30;18.81;74.70
71839;SHT31;59687;37.520;15.068;2022-10-04T03:00:23;18.78;74.72
71839;SHT31;59687;37.520;15.068;2022-10-04T03:05:39;18.76;74.39
71839;SHT31;59687;37.520;15.068;2022-10-04T03:08:06;18.75;74.47
71839;SHT31;59687;37.520;15.068;2022-10-04T03:10:35;18.75;74.70
71839;SHT31;59687;37.520;15.068;2022-10-04T03:13:03;18.71;74.55
71839;SHT31;59687;37.520;15.068;2022-10-04T03:15:30;18.68;74.61
71839;SHT31;59687;37.520;15.068;2022-10-04T03:17:58;18.73;74.69
71839;SHT31;59687;37.520;15.068;2022-10-04T03:20:26;18.69;74.51
71839;SHT31;59687;37.520;15.068;2022-10-04T03:22:53;18.67;74.48
71839;SHT31;59687;37.520;15.068;2022-10-04T03:25:25;18.67;74.73
71839;SHT31;59687;37.520;15.068;2022-10-04T03:27:58;18.65;74.71
71839;SHT31;59687;37.520;15.068;2022-10-04T03:30:25;18.62;74.75
71839;SHT31;59687;37.520;15.068;2022-10-04T03:32:53;18.64;74.74
71839;SHT31;59687;37.520;15.068;2022-10-04T03:35:38;18.64;74.77
71839;SHT31;59687;37.520;15.068;2022-10-04T03:38:07;18.67;74.86
71839;SHT31;59687;37.520;15.068;2022-10-04T03:40:35;18.62;74.86
71839;SHT31;59687;37.520;15.068;2022-10-04T03:43:04;18.65;74.72
71839;SHT31;59687;37.520;15.068;2022-10-04T03:45:33;18.65;74.71
71839;SHT31;59687;37.520;15.068;2022-10-04T03:48:05;18.68;74.60
71839;SHT31;59687;37.520;15.068;2022-10-04T03:50:38;18.65;74.60
71839;SHT31;59687;37.520;15.068;2022-10-04T03:53:28;18.67;74.61
71839;SHT31;59687;37.520;15.068;2022-10-04T03:55:57;18.67;74.59
71839;SHT31;59687;37.520;15.068;2022-10-04T03:58:29;18.69;74.42
71839;SHT31;59687;37.520;15.068;2022-10-04T04:01:11;18.69;73.91
71839;SHT31;59687;37.520;15.068;2022-10-04T04:06:40;18.60;72.38
71839;SHT31;59687;37.520;15.068;2022-10-04T04:09:18;18.58;71.84
71839;SHT31;59687;37.520;15.068;2022-10-04T04:11:48;18.55;71.35
71839;SHT31;59687;37.520;15.068;2022-10-04T04:14:23;18.55;70.96
71839;SHT31;59687;37.520;15.068;2022-10-04T04:17:17;18.51;70.54
71839;SHT31;59687;37.520;15.068;2022-10-04T04:20:02;18.48;70.60
71839;SHT31;59687;37.520;15.068;2022-10-04T04:22:32;18.44;70.41
71839;SHT31;59687;37.520;15.068;2022-10-04T04:25:04;18.47;70.12
71839;SHT31;59687;37.520;15.068;2022-10-04T04:27:36;18.48;70.10
71839;SHT31;59687;37.520;15.068;2022-10-04T04:30:05;18.54;69.92
71839;SHT31;59687;37.520;15.068;2022-10-04T04:32:43;18.48;69.75
71839;SHT31;59687;37.520;15.068;2022-10-04T04:35:29;18.50;69.87
71839;SHT31;59687;37.520;15.068;2022-10-04T04:40:33;18.51;70.18
71839;SHT31;59687;37.520;15.068;2022-10-04T04:43:01;18.50;70.20
71839;SHT31;59687;37.520;15.068;2022-10-04T04:45:31;18.48;70.37
71839;SHT31;59687;37.520;15.068;2022-10-04T04:47:59;18.48;70.63
71839;SHT31;59687;37.520;15.068;2022-10-04T04:50:34;18.48;70.64
71839;SHT31;59687;37.520;15.068;2022-10-04T04:53:47;18.50;70.60
71839;SHT31;59687;37.520;15.068;2022-10-04T04:55:57;18.50;70.60
71839;SHT31;59687;37.520;15.068;2022-10-04T04:58:34;18.52;70.61
71839;SHT31;59687;37.520;15.068;2022-10-04T05:01:18;18.57;70.51
71839;SHT31;59687;37.520;15.068;2022-10-04T05:06:37;18.58;70.67
71839;SHT31;59687;37.520;15.068;2022-10-04T05:09:05;18.64;70.75
71839;SHT31;59687;37.520;15.068;2022-10-04T05:11:37;18.69;70.78
71839;SHT31;59687;37.520;15.068;2022-10-04T05:14:12;18.72;70.66
71839;SHT31;59687;37.520;15.068;2022-10-04T05:19:26;18.81;70.57
71839;SHT31;59687;37.520;15.068;2022-10-04T05:22:11;18.98;70.41
71839;SHT31;59687;37.520;15.068;2022-10-04T05:24:44;19.06;70.30
71839;SHT31;59687;37.520;15.068;2022-10-04T05:27:36;19.14;70.07
71839;SHT31;59687;37.520;15.068;2022-10-04T05:35:19;19.46;69.80
71839;SHT31;59687;37.520;15.068;2022-10-04T05:40:44;20.10;68.08
71839;SHT31;59687;37.520;15.068;2022-10-04T05:43:44;20.55;65.96
71839;SHT31;59687;37.520;15.068;2022-10-04T05:46:22;20.75;65.01
71839;SHT31;59687;37.520;15.068;2022-10-04T05:49:05;20.86;64.81
71839;SHT31;59687;37.520;15.068;2022-10-04T05:51:57;21.14;64.11
71839;SHT31;59687;37.520;15.068;2022-10-04T05:54:32;21.63;63.47
71839;SHT31;59687;37.520;15.068;2022-10-04T06:05:24;24.45;54.29
71839;SHT31;59687;37.520;15.068;2022-10-04T06:13:28;23.55;56.56
71839;SHT31;59687;37.520;15.068;2022-10-04T06:24:26;25.83;52.08
71839;SHT31;59687;37.520;15.068;2022-10-04T06:27:20;26.75;50.15
71839;SHT31;59687;37.520;15.068;2022-10-04T06:30:05;27.65;48.71
71839;SHT31;59687;37.520;15.068;2022-10-04T06:33:10;28.48;47.20
71839;SHT31;59687;37.520;15.068;2022-10-04T06:47:39;29.28;46.44
71839;SHT31;59687;37.520;15.068;2022-10-04T06:55:42;29.19;46.89
71839;SHT31;59687;37.520;15.068;2022-10-04T07:01:29;28.84;48.27
71839;SHT31;59687;37.520;15.068;2022-10-04T07:06:41;28.05;50.43
71839;SHT31;59687;37.520;15.068;2022-10-04T07:09:20;27.92;50.37
71839;SHT31;59687;37.520;15.068;2022-10-04T07:12:03;28.17;50.30
71839;SHT31;59687;37.520;15.068;2022-10-04T07:14:37;28.57;49.85
71839;SHT31;59687;37.520;15.068;2022-10-04T07:17:12;28.10;51.81
71839;SHT31;59687;37.520;15.068;2022-10-04T07:19:46;27.37;53.45
71839;SHT31;59687;37.520;15.068;2022-10-04T07:25:20;28.31;51.22
71839;SHT31;59687;37.520;15.068;2022-10-04T07:33:32;28.29;52.38
71839;SHT31;59687;37.520;15.068;2022-10-04T07:36:12;28.60;52.02
71839;SHT31;59687;37.520;15.068;2022-10-04T07:38:50;29.33;49.24
71839;SHT31;59687;37.520;15.068;2022-10-04T07:41:33;29.10;49.63
71839;SHT31;59687;37.520;15.068;2022-10-04T07:44:18;29.69;48.92
71839;SHT31;59687;37.520;15.068;2022-10-04T07:49:24;30.12;47.73
71839;SHT31;59687;37.520;15.068;2022-10-04T07:52:26;29.86;48.06
71839;SHT31;59687;37.520;15.068;2022-10-04T08:03:29;29.60;49.15
71839;SHT31;59687;37.520;15.068;2022-10-04T08:05:35;29.87;48.42
71839;SHT31;59687;37.520;15.068;2022-10-04T08:11:24;29.94;47.75
71839;SHT31;59687;37.520;15.068;2022-10-04T08:14:21;28.94;49.79
71839;SHT31;59687;37.520;15.068;2022-10-04T08:33:35;30.62;47.01
71839;SHT31;59687;37.520;15.068;2022-10-04T08:39:05;31.74;44.55
71839;SHT31;59687;37.520;15.068;2022-10-04T08:44:43;31.41;44.98
71839;SHT31;59687;37.520;15.068;2022-10-04T08:50:31;32.08;44.10
71839;SHT31;59687;37.520;15.068;2022-10-04T08:53:06;31.70;43.90
71839;SHT31;59687;37.520;15.068;2022-10-04T08:58:29;29.78;47.18
71839;SHT31;59687;37.520;15.068;2022-10-04T09:07:07;30.69;46.34
71839;SHT31;59687;37.520;15.068;2022-10-04T09:21:11;30.88;46.14
71839;SHT31;59687;37.520;15.068;2022-10-04T09:41:09;28.70;50.91
71839;SHT31;59687;37.520;15.068;2022-10-04T09:54:47;32.45;42.67
71839;SHT31;59687;37.520;15.068;2022-10-04T10:00:29;33.48;40.12
71839;SHT31;59687;37.520;15.068;2022-10-04T10:11:57;37.59;33.68
71839;SHT31;59687;37.520;15.068;2022-10-04T10:15:34;36.57;34.31
71839;SHT31;59687;37.520;15.068;2022-10-04T10:18:22;34.97;37.40
71839;SHT31;59687;37.520;15.068;2022-10-04T10:21:02;33.62;38.21
71839;SHT31;59687;37.520;15.068;2022-10-04T10:37:52;36.14;35.03
71839;SHT31;59687;37.520;15.068;2022-10-04T11:01:05;36.94;32.39
71839;SHT31;59687;37.520;15.068;2022-10-04T11:15:41;37.48;31.48
71839;SHT31;59687;37.520;15.068;2022-10-04T11:27:44;38.44;29.73
71839;SHT31;59687;37.520;15.068;2022-10-04T11:30:24;40.35;27.47
71839;SHT31;59687;37.520;15.068;2022-10-04T11:39:04;39.68;27.69
71839;SHT31;59687;37.520;15.068;2022-10-04T11:41:58;38.83;28.96
71839;SHT31;59687;37.520;15.068;2022-10-04T11:50:35;38.11;29.64
71839;SHT31;59687;37.520;15.068;2022-10-04T11:56:16;38.60;28.78
71839;SHT31;59687;37.520;15.068;2022-10-04T12:07:55;38.14;29.37
71839;SHT31;59687;37.520;15.068;2022-10-04T12:10:39;37.08;30.63
71839;SHT31;59687;37.520;15.068;2022-10-04T12:16:19;37.68;30.29
71839;SHT31;59687;37.520;15.068;2022-10-04T12:23:12;37.22;30.73
71839;SHT31;59687;37.520;15.068;2022-10-04T12:28:58;37.58;29.94
71839;SHT31;59687;37.520;15.068;2022-10-04T12:31:49;36.75;31.12
71839;SHT31;59687;37.520;15.068;2022-10-04T12:34:24;37.72;30.54
71839;SHT31;59687;37.520;15.068;2022-10-04T12:42:56;37.49;30.36
71839;SHT31;59687;37.520;15.068;2022-10-04T12:51:19;35.63;32.57
71839;SHT31;59687;37.520;15.068;2022-10-04T12:59:47;35.39;33.03
71839;SHT31;59687;37.520;15.068;2022-10-04T13:20:36;33.19;36.55
71839;SHT31;59687;37.520;15.068;2022-10-04T13:31:03;31.56;39.19
71839;SHT31;59687;37.520;15.068;2022-10-04T13:33:50;31.66;38.82
71839;SHT31;59687;37.520;15.068;2022-10-04T13:51:02;30.79;40.32
71839;SHT31;59687;37.520;15.068;2022-10-04T13:57:17;30.27;41.50
71839;SHT31;59687;37.520;15.068;2022-10-04T13:59:58;30.00;41.78
71839;SHT31;59687;37.520;15.068;2022-10-04T14:08:47;30.08;41.15
71839;SHT31;59687;37.520;15.068;2022-10-04T14:29:19;28.39;44.58
71839;SHT31;59687;37.520;15.068;2022-10-04T14:40:59;27.70;46.00
71839;SHT31;59687;37.520;15.068;2022-10-04T14:52:53;26.39;49.48
71839;SHT31;59687;37.520;15.068;2022-10-04T14:56:28;26.38;49.70
71839;SHT31;59687;37.520;15.068;2022-10-04T15:01:26;26.56;49.50
71839;SHT31;59687;37.520;15.068;2022-10-04T15:04:35;26.90;48.31
71839;SHT31;59687;37.520;15.068;2022-10-04T15:07:41;26.36;49.80
71839;SHT31;59687;37.520;15.068;2022-10-04T15:10:26;25.98;50.41
71839;SHT31;59687;37.520;15.068;2022-10-04T15:13:06;25.63;51.62
71839;SHT31;59687;37.520;15.068;2022-10-04T15:21:42;25.35;52.52
71839;SHT31;59687;37.520;15.068;2022-10-04T15:30:56;24.13;56.26
71839;SHT31;59687;37.520;15.068;2022-10-04T15:34:19;24.10;56.24
71839;SHT31;59687;37.520;15.068;2022-10-04T15:40:22;24.22;55.98
71839;SHT31;59687;37.520;15.068;2022-10-04T15:43:17;24.32;55.62
71839;SHT31;59687;37.520;15.068;2022-10-04T15:55:00;23.92;57.23
71839;SHT31;59687;37.520;15.068;2022-10-04T16:03:24;23.25;58.68
71839;SHT31;59687;37.520;15.068;2022-10-04T16:11:45;22.69;61.18
71839;SHT31;59687;37.520;15.068;2022-10-04T16:14:31;22.58;61.41
71839;SHT31;59687;37.520;15.068;2022-10-04T16:23:28;22.27;62.46
71839;SHT31;59687;37.520;15.068;2022-10-04T16:31:40;21.96;63.77
71839;SHT31;59687;37.520;15.068;2022-10-04T16:34:28;21.92;64.03
71839;SHT31;59687;37.520;15.068;2022-10-04T17:02:20;21.94;63.13
71839;SHT31;59687;37.520;15.068;2022-10-04T17:05:17;21.90;63.48
71839;SHT31;59687;37.520;15.068;2022-10-04T17:10:33;21.88;63.20
71839;SHT31;59687;37.520;15.068;2022-10-04T17:24:35;21.85;63.53
71839;SHT31;59687;37.520;15.068;2022-10-04T17:27:26;21.94;64.02
71839;SHT31;59687;37.520;15.068;2022-10-04T17:30:21;21.78;64.78
71839;SHT31;59687;37.520;15.068;2022-10-04T17:33:18;21.72;65.22
71839;SHT31;59687;37.520;15.068;2022-10-04T17:35:56;21.69;65.56
71839;SHT31;59687;37.520;15.068;2022-10-04T17:50:27;21.67;65.46
71839;SHT31;59687;37.520;15.068;2022-10-04T17:53:26;21.67;65.15
71839;SHT31;59687;37.520;15.068;2022-10-04T17:56:13;21.72;65.10
71839;SHT31;59687;37.520;15.068;2022-10-04T17:58:58;21.69;65.22
71839;SHT31;59687;37.520;15.068;2022-10-04T18:01:35;21.75;65.37
71839;SHT31;59687;37.520;15.068;2022-10-04T18:04:22;21.73;65.43
71839;SHT31;59687;37.520;15.068;2022-10-04T18:07:13;21.75;65.27
71839;SHT31;59687;37.520;15.068;2022-10-04T18:18:36;21.81;64.85
71839;SHT31;59687;37.520;15.068;2022-10-04T18:24:00;21.79;65.26
71839;SHT31;59687;37.520;15.068;2022-10-04T18:26:33;21.79;65.21
71839;SHT31;59687;37.520;15.068;2022-10-04T18:29:06;21.81;65.41
71839;SHT31;59687;37.520;15.068;2022-10-04T18:31:38;21.76;65.31
71839;SHT31;59687;37.520;15.068;2022-10-04T18:34:29;21.75;65.27
71839;SHT31;59687;37.520;15.068;2022-10-04T18:37:36;21.76;65.33
71839;SHT31;59687;37.520;15.068;2022-10-04T18:40:17;21.75;65.26
71839;SHT31;59687;37.520;15.068;2022-10-04T18:57:30;21.75;65.02
71839;SHT31;59687;37.520;15.068;2022-10-04T19:00:10;21.75;65.17
71839;SHT31;59687;37.520;15.068;2022-10-04T19:03:21;21.75;65.11
71839;SHT31;59687;37.520;15.068;2022-10-04T19:12:15;21.73;64.81
71839;SHT31;59687;37.520;15.068;2022-10-04T19:15:04;21.72;65.02
71839;SHT31;59687;37.520;15.068;2022-10-04T19:17:54;21.67;65.02
71839;SHT31;59687;37.520;15.068;2022-10-04T19:20:51;21.65;65.12
71839;SHT31;59687;37.520;15.068;2022-10-04T19:23:53;21.63;65.08
71839;SHT31;59687;37.520;15.068;2022-10-04T19:26:47;21.67;64.87
71839;SHT31;59687;37.520;15.068;2022-10-04T19:32:02;21.61;65.02
71839;SHT31;59687;37.520;15.068;2022-10-04T19:37:31;21.51;65.29
71839;SHT31;59687;37.520;15.068;2022-10-04T19:42:55;21.45;65.41
71839;SHT31;59687;37.520;15.068;2022-10-04T19:45:58;21.41;65.65
71839;SHT31;59687;37.520;15.068;2022-10-04T19:48:35;21.37;65.79
71839;SHT31;59687;37.520;15.068;2022-10-04T19:53:43;21.28;66.08
71839;SHT31;59687;37.520;15.068;2022-10-04T19:56:20;21.30;65.99
71839;SHT31;59687;37.520;15.068;2022-10-04T19:59:05;21.34;65.85
71839;SHT31;59687;37.520;15.068;2022-10-04T20:01:40;21.38;65.80
71839;SHT31;59687;37.520;15.068;2022-10-04T20:04:20;21.41;65.87
71839;SHT31;59687;37.520;15.068;2022-10-04T20:07:25;21.48;65.60
71839;SHT31;59687;37.520;15.068;2022-10-04T20:12:39;21.57;65.28
71839;SHT31;59687;37.520;15.068;2022-10-04T20:17:50;21.57;65.19
71839;SHT31;59687;37.520;15.068;2022-10-04T20:32:11;21.51;64.56
71839;SHT31;59687;37.520;15.068;2022-10-04T20:35:07;21.51;64.46
71839;SHT31;59687;37.520;15.068;2022-10-04T20:48:20;21.58;64.53
71839;SHT31;59687;37.520;15.068;2022-10-04T20:50:48;21.59;64.32
71839;SHT31;59687;37.520;15.068;2022-10-04T20:53:24;21.55;64.51
71839;SHT31;59687;37.520;15.068;2022-10-04T20:56:10;21.57;64.32
71839;SHT31;59687;37.520;15.068;2022-10-04T20:58:41;21.57;64.51
71839;SHT31;59687;37.520;15.068;2022-10-04T21:04:18;21.59;64.44
71839;SHT31;59687;37.520;15.068;2022-10-04T21:07:00;21.59;64.60
71839;SHT31;59687;37.520;15.068;2022-10-04T21:09:32;21.62;64.69
71839;SHT31;59687;37.520;15.068;2022-10-04T21:12:00;21.59;64.79
71839;SHT31;59687;37.520;15.068;2022-10-04T21:14:32;21.58;64.90
71839;SHT31;59687;37.520;15.068;2022-10-04T21:19:48;21.59;64.73
71839;SHT31;59687;37.520;15.068;2022-10-04T21:27:32;21.57;64.39
71839;SHT31;59687;37.520;15.068;2022-10-04T21:30:11;21.57;64.46
71839;SHT31;59687;37.520;15.068;2022-10-04T21:32:38;21.55;64.43
71839;SHT31;59687;37.520;15.068;2022-10-04T21:35:08;21.58;64.43
71839;SHT31;59687;37.520;15.068;2022-10-04T21:37:35;21.55;64.49
71839;SHT31;59687;37.520;15.068;2022-10-04T21:40:04;21.58;64.56
71839;SHT31;59687;37.520;15.068;2022-10-04T21:42:31;21.52;64.73
71839;SHT31;59687;37.520;15.068;2022-10-04T21:44:59;21.48;64.66
71839;SHT31;59687;37.520;15.068;2022-10-04T21:47:28;21.45;64.73
71839;SHT31;59687;37.520;15.068;2022-10-04T21:50:01;21.40;64.92
71839;SHT31;59687;37.520;15.068;2022-10-04T21:52:28;21.35;65.13
71839;SHT31;59687;37.520;15.068;2022-10-04T21:54:56;21.32;65.26
71839;SHT31;59687;37.520;15.068;2022-10-04T21:57:25;21.32;65.33
71839;SHT31;59687;37.520;15.068;2022-10-04T21:59:55;21.30;65.34
71839;SHT31;59687;37.520;15.068;2022-10-04T22:02:24;21.26;65.44
71839;SHT31;59687;37.520;15.068;2022-10-04T22:04:52;21.17;65.49
71839;SHT31;59687;37.520;15.068;2022-10-04T22:07:20;21.19;65.31
71839;SHT31;59687;37.520;15.068;2022-10-04T22:09:47;21.15;65.63
71839;SHT31;59687;37.520;15.068;2022-10-04T22:12:14;21.10;65.87
71839;SHT31;59687;37.520;15.068;2022-10-04T22:14:44;21.02;65.92
71839;SHT31;59687;37.520;15.068;2022-10-04T22:17:12;20.97;66.36
71839;SHT31;59687;37.520;15.068;2022-10-04T22:19:40;20.92;66.74
71839;SHT31;59687;37.520;15.068;2022-10-04T22:22:16;20.87;66.95
71839;SHT31;59687;37.520;15.068;2022-10-04T22:24:44;20.85;67.21
71839;SHT31;59687;37.520;15.068;2022-10-04T22:27:16;20.83;67.00
71839;SHT31;59687;37.520;15.068;2022-10-04T22:29:45;20.82;67.21
71839;SHT31;59687;37.520;15.068;2022-10-04T22:32:24;20.76;67.42
71839;SHT31;59687;37.520;15.068;2022-10-04T22:35:00;20.75;67.48
71839;SHT31;59687;37.520;15.068;2022-10-04T22:37:30;20.71;67.69
71839;SHT31;59687;37.520;15.068;2022-10-04T22:39:57;20.72;67.55
71839;SHT31;59687;37.520;15.068;2022-10-04T22:42:27;20.72;67.65
71839;SHT31;59687;37.520;15.068;2022-10-04T22:44:57;20.75;67.97
71839;SHT31;59687;37.520;15.068;2022-10-04T22:47:24;20.71;67.95
71839;SHT31;59687;37.520;15.068;2022-10-04T22:49:53;20.69;68.01
71839;SHT31;59687;37.520;15.068;2022-10-04T22:52:24;20.69;68.24
71839;SHT31;59687;37.520;15.068;2022-10-04T22:54:56;20.64;68.22
71839;SHT31;59687;37.520;15.068;2022-10-04T22:57:23;20.58;68.41
71839;SHT31;59687;37.520;15.068;2022-10-04T22:59:51;20.55;68.46
71839;SHT31;59687;37.520;15.068;2022-10-04T23:02:21;20.55;68.55
71839;SHT31;59687;37.520;15.068;2022-10-04T23:04:57;20.49;68.67
71839;SHT31;59687;37.520;15.068;2022-10-04T23:07:26;20.47;68.85
71839;SHT31;59687;37.520;15.068;2022-10-04T23:09:54;20.43;68.81
71839;SHT31;59687;37.520;15.068;2022-10-04T23:12:24;20.40;68.90
71839;SHT31;59687;37.520;15.068;2022-10-04T23:14:52;20.40;69.04
71839;SHT31;59687;37.520;15.068;2022-10-04T23:17:31;20.31;69.41
71839;SHT31;59687;37.520;15.068;2022-10-04T23:22:31;20.16;69.88
71839;SHT31;59687;37.520;15.068;2022-10-04T23:25:00;20.12;69.96
71839;SHT31;59687;37.520;15.068;2022-10-04T23:27:27;20.05;70.34
71839;SHT31;59687;37.520;15.068;2022-10-04T23:30:00;20.00;70.42
71839;SHT31;59687;37.520;15.068;2022-10-04T23:32:33;19.94;70.39
71839;SHT31;59687;37.520;15.068;2022-10-04T23:35:05;19.89;70.64
71839;SHT31;59687;37.520;15.068;2022-10-04T23:37:39;19.81;70.94
71839;SHT31;59687;37.520;15.068;2022-10-04T23:40:11;19.76;71.37
71839;SHT31;59687;37.520;15.068;2022-10-04T23:42:42;19.72;71.35
71839;SHT31;59687;37.520;15.068;2022-10-04T23:45:36;19.71;71.48
71839;SHT31;59687;37.520;15.068;2022-10-04T23:48:10;19.64;71.62
71839;SHT31;59687;37.520;15.068;2022-10-04T23:50:37;19.58;72.00
71839;SHT31;59687;37.520;15.068;2022-10-04T23:53:17;19.54;72.35
71839;SHT31;59687;37.520;15.068;2022-10-04T23:55:45;19.48;72.41
71839;SHT31;59687;37.520;15.068;2022-10-04T23:58:21;19.43;72.72
